sensor_id;sensor_type;location;lat;lon;timestamp;temperature;humidity
41722;DHT22;27407;24.142;-110.310;2023-12-20T00:00:29;28.80;99.90
41722;DHT22;27407;24.142;-110.310;2023-12-20T00:02:55;28.80;99.90
41722;DHT22;27407;24.142;-110.310;2023-12-20T00:05:22;28.60;99.90
41722;DHT22;27407;24.142;-110.310;2023-12-20T00:07:48;28.50;99.90
41722;DHT22;27407;24.142;-110.310;2023-12-20T00:10:15;28.30;99.90
41722;DHT22;27407;24.142;-110.310;2023-12-20T00:12:42;28.20;99.90
41722;DHT22;27407;24.142;-110.310;2023-12-20T00:15:08;28.10;99.90
41722;DHT22;27407;24.142;-110.310;2023-12-20T00:17:35;28.00;99.90
41722;DHT22;27407;24.142;-110.310;2023-12-20T00:20:02;27.90;99.90
41722;DHT22;27407;24.142;-110.310;2023-12-20T00:22:28;27.80;99.90
41722;DHT22;27407;24.142;-110.310;2023-12-20T00:24:55;27.60;99.90
41722;DHT22;27407;24.142;-110.310;2023-12-20T00:27:22;27.50;99.90
41722;DHT22;27407;24.142;-110.310;2023-12-20T00:29:49;27.30;99.90
41722;DHT22;27407;24.142;-110.310;2023-12-20T00:32:16;27.20;99.90
41722;DHT22;27407;24.142;-110.310;2023-12-20T00:34:43;27.00;99.90
41722;DHT22;27407;24.142;-110.310;2023-12-20T00:37:10;26.90;99.90
41722;DHT22;27407;24.142;-110.310;2023-12-20T00:39:37;26.80;99.90
41722;DHT22;27407;24.142;-110.310;2023-12-20T00:42:04;26.60;99.90
41722;DHT22;27407;24.142;-110.310;2023-12-20T00:44:30;26.50;99.90
41722;DHT22;27407;24.142;-110.310;2023-12-20T00:46:57;26.40;99.90
41722;DHT22;27407;24.142;-110.310;2023-12-20T00:49:24;26.30;99.90
41722;DHT22;27407;24.142;-110.310;2023-12-20T00:51:51;26.10;99.90
41722;DHT22;27407;24.142;-110.310;2023-12-20T00:54:18;26.00;99.90
41722;DHT22;27407;24.142;-110.310;2023-12-20T00:56:45;25.80;99.90
41722;DHT22;27407;24.142;-110.310;2023-12-20T00:59:12;25.70;99.90
41722;DHT22;27407;24.142;-110.310;2023-12-20T01:01:38;25.60;99.90
41722;DHT22;27407;24.142;-110.310;2023-12-20T01:04:05;25.60;99.90
41722;DHT22;27407;24.142;-110.310;2023-12-20T01:06:32;25.50;99.90
41722;DHT22;27407;24.142;-110.310;2023-12-20T01:08:58;25.50;99.90
41722;DHT22;27407;24.142;-110.310;2023-12-20T01:11:25;25.40;99.90
41722;DHT22;27407;24.142;-110.310;2023-12-20T01:13:52;25.30;99.90
41722;DHT22;27407;24.142;-110.310;2023-12-20T01:16:18;25.30;99.90
41722;DHT22;27407;24.142;-110.310;2023-12-20T01:18:45;25.20;99.90
41722;DHT22;27407;24.142;-110.310;2023-12-20T01:21:12;25.20;99.90
41722;DHT22;27407;24.142;-110.310;2023-12-20T01:23:38;25.10;99.90
41722;DHT22;27407;24.142;-110.310;2023-12-20T01:26:05;25.10;99.90
41722;DHT22;27407;24.142;-110.310;2023-12-20T01:28:32;25.00;99.90
41722;DHT22;27407;24.142;-110.310;2023-12-20T01:30:58;25.00;99.90
41722;DHT22;27407;24.142;-110.310;2023-12-20T01:33:25;25.00;99.90
41722;DHT22;27407;24.142;-110.310;2023-12-20T01:35:51;24.80;99.90
41722;DHT22;27407;24.142;-110.310;2023-12-20T01:38:18;24.80;99.90
41722;DHT22;27407;24.142;-110.310;2023-12-20T01:40:46;24.70;99.90
41722;DHT22;27407;24.142;-110.310;2023-12-20T01:43:13;24.60;99.90
41722;DHT22;27407;24.142;-110.310;2023-12-20T01:45:40;24.50;99.90
41722;DHT22;27407;24.142;-110.310;2023-12-20T01:48:07;24.50;99.90
41722;DHT22;27407;24.142;-110.310;2023-12-20T01:50:36;24.50;99.90
41722;DHT22;27407;24.142;-110.310;2023-12-20T01:53:04;24.40;99.90
41722;DHT22;27407;24.142;-110.310;2023-12-20T02:03:56;24.10;99.90
41722;DHT22;27407;24.142;-110.310;2023-12-20T02:06:25;24.00;99.90
41722;DHT22;27407;24.142;-110.310;2023-12-20T02:08:54;23.90;99.90
41722;DHT22;27407;24.142;-110.310;2023-12-20T02:11:21;23.80;99.90
41722;DHT22;27407;24.142;-110.310;2023-12-20T02:13:48;23.70;99.90
41722;DHT22;27407;24.142;-110.310;2023-12-20T02:16:15;23.70;99.90
41722;DHT22;27407;24.142;-110.310;2023-12-20T02:18:43;23.60;99.90
41722;DHT22;27407;24.142;-110.310;2023-12-20T02:21:10;23.60;99.90
41722;DHT22;27407;24.142;-110.310;2023-12-20T02:23:37;23.60;99.90
41722;DHT22;27407;24.142;-110.310;2023-12-20T02:26:04;23.60;99.90
41722;DHT22;27407;24.142;-110.310;2023-12-20T02:28:32;23.60;99.90
41722;DHT22;27407;24.142;-110.310;2023-12-20T02:30:59;23.60;99.90
41722;DHT22;27407;24.142;-110.310;2023-12-20T02:33:26;23.60;99.90
41722;DHT22;27407;24.142;-110.310;2023-12-20T02:35:53;23.50;99.90
41722;DHT22;27407;24.142;-110.310;2023-12-20T02:38:19;23.50;99.90
41722;DHT22;27407;24.142;-110.310;2023-12-20T02:40:46;23.40;99.90
41722;DHT22;27407;24.142;-110.310;2023-12-20T02:43:12;23.30;99.90
41722;DHT22;27407;24.142;-110.310;2023-12-20T02:45:39;23.40;99.90
41722;DHT22;27407;24.142;-110.310;2023-12-20T02:48:06;23.30;99.90
41722;DHT22;27407;24.142;-110.310;2023-12-20T02:50:33;23.30;99.90
41722;DHT22;27407;24.142;-110.310;2023-12-20T02:52:59;23.30;99.90
41722;DHT22;27407;24.142;-110.310;2023-12-20T02:55:26;23.20;99.90
41722;DHT22;27407;24.142;-110.310;2023-12-20T02:57:52;23.20;99.90
41722;DHT22;27407;24.142;-110.310;2023-12-20T03:00:19;23.20;99.90
41722;DHT22;27407;24.142;-110.310;2023-12-20T03:02:45;23.10;99.90
41722;DHT22;27407;24.142;-110.310;2023-12-20T03:05:12;23.00;99.90
41722;DHT22;27407;24.142;-110.310;2023-12-20T03:07:39;22.90;99.90
41722;DHT22;27407;24.142;-110.310;2023-12-20T03:10:06;22.90;99.90
41722;DHT22;27407;24.142;-110.310;2023-12-20T03:12:34;22.90;99.90
41722;DHT22;27407;24.142;-110.310;2023-12-20T03:15:00;22.80;99.90
41722;DHT22;27407;24.142;-110.310;2023-12-20T03:17:27;22.70;99.90
41722;DHT22;27407;24.142;-110.310;2023-12-20T03:19:54;22.70;99.90
41722;DHT22;27407;24.142;-110.310;2023-12-20T03:22:20;22.70;99.90
41722;DHT22;27407;24.142;-110.310;2023-12-20T03:24:47;22.70;99.90
41722;DHT22;27407;24.142;-110.310;2023-12-20T03:27:13;22.60;99.90
41722;DHT22;27407;24.142;-110.310;2023-12-20T03:29:40;22.60;99.90
41722;DHT22;27407;24.142;-110.310;2023-12-20T03:32:07;22.50;99.90
41722;DHT22;27407;24.142;-110.310;2023-12-20T03:34:34;22.50;99.90
41722;DHT22;27407;24.142;-110.310;2023-12-20T03:37:01;22.50;99.90
41722;DHT22;27407;24.142;-110.310;2023-12-20T03:39:27;22.40;99.90
41722;DHT22;27407;24.142;-110.310;2023-12-20T03:41:54;22.30;99.90
41722;DHT22;27407;24.142;-110.310;2023-12-20T03:44:21;22.20;99.90
41722;DHT22;27407;24.142;-110.310;2023-12-20T03:46:47;22.20;99.90
41722;DHT22;27407;24.142;-110.310;2023-12-20T03:49:15;22.30;99.90
41722;DHT22;27407;24.142;-110.310;2023-12-20T03:51:41;22.20;99.90
41722;DHT22;27407;24.142;-110.310;2023-12-20T04:13:17;21.80;99.90
41722;DHT22;27407;24.142;-110.310;2023-12-20T04:15:44;21.80;99.90
41722;DHT22;27407;24.142;-110.310;2023-12-20T04:18:10;21.80;99.90
41722;DHT22;27407;24.142;-110.310;2023-12-20T04:20:37;21.90;99.90
41722;DHT22;27407;24.142;-110.310;2023-12-20T04:23:04;21.90;99.90
41722;DHT22;27407;24.142;-110.310;2023-12-20T04:25:30;21.80;99.90
41722;DHT22;27407;24.142;-110.310;2023-12-20T04:27:57;21.80;99.90
41722;DHT22;27407;24.142;-110.310;2023-12-20T04:30:23;21.70;99.90
41722;DHT22;27407;24.142;-110.310;2023-12-20T04:32:50;21.70;99.90
41722;DHT22;27407;24.142;-110.310;2023-12-20T04:35:17;21.70;99.90
41722;DHT22;27407;24.142;-110.310;2023-12-20T04:37:43;21.60;99.90
41722;DHT22;27407;24.142;-110.310;2023-12-20T04:40:10;21.50;99.90
41722;DHT22;27407;24.142;-110.310;2023-12-20T04:42:37;21.50;99.90
41722;DHT22;27407;24.142;-110.310;2023-12-20T04:45:04;21.50;99.90
41722;DHT22;27407;24.142;-110.310;2023-12-20T04:47:31;21.50;99.90
41722;DHT22;27407;24.142;-110.310;2023-12-20T04:49:57;21.60;99.90
41722;DHT22;27407;24.142;-110.310;2023-12-20T04:52:25;21.60;99.90
41722;DHT22;27407;24.142;-110.310;2023-12-20T04:54:51;21.50;99.90
41722;DHT22;27407;24.142;-110.310;2023-12-20T04:57:18;21.50;99.90
41722;DHT22;27407;24.142;-110.310;2023-12-20T04:59:45;21.50;99.90
41722;DHT22;27407;24.142;-110.310;2023-12-20T05:02:11;21.50;99.90
41722;DHT22;27407;24.142;-110.310;2023-12-20T05:04:38;21.50;99.90
41722;DHT22;27407;24.142;-110.310;2023-12-20T05:07:05;21.50;99.90
41722;DHT22;27407;24.142;-110.310;2023-12-20T05:09:32;21.50;99.90
41722;DHT22;27407;24.142;-110.310;2023-12-20T05:11:58;21.60;99.90
41722;DHT22;27407;24.142;-110.310;2023-12-20T05:14:25;21.60;99.90
41722;DHT22;27407;24.142;-110.310;2023-12-20T05:16:52;21.60;99.90
41722;DHT22;27407;24.142;-110.310;2023-12-20T05:19:18;21.70;99.90
41722;DHT22;27407;24.142;-110.310;2023-12-20T05:21:45;21.70;99.90
41722;DHT22;27407;24.142;-110.310;2023-12-20T05:24:12;21.80;99.90
41722;DHT22;27407;24.142;-110.310;2023-12-20T05:26:38;21.70;99.90
41722;DHT22;27407;24.142;-110.310;2023-12-20T05:29:05;21.70;99.90
41722;DHT22;27407;24.142;-110.310;2023-12-20T05:31:32;21.70;99.90
41722;DHT22;27407;24.142;-110.310;2023-12-20T05:33:58;21.70;99.90
41722;DHT22;27407;24.142;-110.310;2023-12-20T05:36:25;21.70;99.90
41722;DHT22;27407;24.142;-110.310;2023-12-20T05:38:52;21.70;99.90
41722;DHT22;27407;24.142;-110.310;2023-12-20T05:41:19;21.70;99.90
41722;DHT22;27407;24.142;-110.310;2023-12-20T05:43:47;21.70;99.90
41722;DHT22;27407;24.142;-110.310;2023-12-20T05:46:14;21.70;99.90
41722;DHT22;27407;24.142;-110.310;2023-12-20T05:48:40;21.70;99.90
41722;DHT22;27407;24.142;-110.310;2023-12-20T05:51:07;21.70;99.90
41722;DHT22;27407;24.142;-110.310;2023-12-20T07:07:26;20.40;99.90
41722;DHT22;27407;24.142;-110.310;2023-12-20T07:09:52;20.30;99.90
41722;DHT22;27407;24.142;-110.310;2023-12-20T07:12:19;20.30;99.90
41722;DHT22;27407;24.142;-110.310;2023-12-20T07:14:46;20.30;99.90
41722;DHT22;27407;24.142;-110.310;2023-12-20T07:17:13;20.30;99.90
41722;DHT22;27407;24.142;-110.310;2023-12-20T07:19:41;20.20;99.90
41722;DHT22;27407;24.142;-110.310;2023-12-20T07:22:08;20.20;99.90
41722;DHT22;27407;24.142;-110.310;2023-12-20T07:24:35;20.20;99.90
41722;DHT22;27407;24.142;-110.310;2023-12-20T07:27:02;20.20;99.90
41722;DHT22;27407;24.142;-110.310;2023-12-20T07:29:28;20.20;99.90
41722;DHT22;27407;24.142;-110.310;2023-12-20T07:31:55;20.10;99.90
41722;DHT22;27407;24.142;-110.310;2023-12-20T07:34:22;20.20;99.90
41722;DHT22;27407;24.142;-110.310;2023-12-20T07:36:48;20.20;99.90
41722;DHT22;27407;24.142;-110.310;2023-12-20T07:39:15;20.20;99.90
41722;DHT22;27407;24.142;-110.310;2023-12-20T07:41:42;20.30;99.90
41722;DHT22;27407;24.142;-110.310;2023-12-20T07:44:08;20.30;99.90
41722;DHT22;27407;24.142;-110.310;2023-12-20T07:46:35;20.40;99.90
41722;DHT22;27407;24.142;-110.310;2023-12-20T07:49:02;20.40;99.90
41722;DHT22;27407;24.142;-110.310;2023-12-20T07:51:28;20.40;99.90
41722;DHT22;27407;24.142;-110.310;2023-12-20T08:10:24;20.40;99.90
41722;DHT22;27407;24.142;-110.310;2023-12-20T08:12:51;20.40;99.90
41722;DHT22;27407;24.142;-110.310;2023-12-20T08:15:18;20.40;99.90
41722;DHT22;27407;24.142;-110.310;2023-12-20T08:17:44;20.40;99.90
41722;DHT22;27407;24.142;-110.310;2023-12-20T08:20:11;20.40;99.90
41722;DHT22;27407;24.142;-110.310;2023-12-20T08:22:38;20.40;99.90
41722;DHT22;27407;24.142;-110.310;2023-12-20T08:25:04;20.50;99.90
41722;DHT22;27407;24.142;-110.310;2023-12-20T08:27:31;20.50;99.90
41722;DHT22;27407;24.142;-110.310;2023-12-20T08:29:58;20.50;99.90
41722;DHT22;27407;24.142;-110.310;2023-12-20T08:32:28;20.50;99.90
41722;DHT22;27407;24.142;-110.310;2023-12-20T08:34:54;20.40;99.90
41722;DHT22;27407;24.142;-110.310;2023-12-20T08:37:21;20.30;99.90
41722;DHT22;27407;24.142;-110.310;2023-12-20T08:39:47;20.20;99.90
41722;DHT22;27407;24.142;-110.310;2023-12-20T08:42:14;20.10;99.90
41722;DHT22;27407;24.142;-110.310;2023-12-20T08:44:41;20.10;99.90
41722;DHT22;27407;24.142;-110.310;2023-12-20T08:47:07;20.10;99.90
41722;DHT22;27407;24.142;-110.310;2023-12-20T08:49:34;20.00;99.90
41722;DHT22;27407;24.142;-110.310;2023-12-20T08:52:00;20.00;99.90
41722;DHT22;27407;24.142;-110.310;2023-12-20T08:54:27;20.00;99.90
41722;DHT22;27407;24.142;-110.310;2023-12-20T08:56:54;20.10;99.90
41722;DHT22;27407;24.142;-110.310;2023-12-20T08:59:20;20.30;99.90
41722;DHT22;27407;24.142;-110.310;2023-12-20T09:01:47;20.50;99.90
41722;DHT22;27407;24.142;-110.310;2023-12-20T09:04:14;20.90;99.90
41722;DHT22;27407;24.142;-110.310;2023-12-20T09:06:41;21.10;99.90
41722;DHT22;27407;24.142;-110.310;2023-12-20T09:09:07;21.30;99.90
41722;DHT22;27407;24.142;-110.310;2023-12-20T09:11:39;21.60;99.90
41722;DHT22;27407;24.142;-110.310;2023-12-20T09:14:06;21.80;99.90
41722;DHT22;27407;24.142;-110.310;2023-12-20T09:16:33;21.90;99.90
41722;DHT22;27407;24.142;-110.310;2023-12-20T09:18:59;22.00;99.90
41722;DHT22;27407;24.142;-110.310;2023-12-20T09:21:26;22.20;99.90
41722;DHT22;27407;24.142;-110.310;2023-12-20T09:23:53;22.30;99.90
41722;DHT22;27407;24.142;-110.310;2023-12-20T09:26:20;22.30;99.90
41722;DHT22;27407;24.142;-110.310;2023-12-20T09:28:47;22.20;99.90
41722;DHT22;27407;24.142;-110.310;2023-12-20T09:31:14;22.30;99.90
41722;DHT22;27407;24.142;-110.310;2023-12-20T09:33:40;22.30;99.90
41722;DHT22;27407;24.142;-110.310;2023-12-20T09:36:07;22.30;99.90
41722;DHT22;27407;24.142;-110.310;2023-12-20T09:38:33;22.30;99.90
41722;DHT22;27407;24.142;-110.310;2023-12-20T09:41:00;22.30;99.90
41722;DHT22;27407;24.142;-110.310;2023-12-20T09:43:31;22.30;99.90
41722;DHT22;27407;24.142;-110.310;2023-12-20T09:46:00;22.40;99.90
41722;DHT22;27407;24.142;-110.310;2023-12-20T09:48:30;22.50;99.90
41722;DHT22;27407;24.142;-110.310;2023-12-20T09:50:57;22.40;99.90
41722;DHT22;27407;24.142;-110.310;2023-12-20T09:53:25;22.40;99.90
41722;DHT22;27407;24.142;-110.310;2023-12-20T09:55:58;22.40;99.90
41722;DHT22;27407;24.142;-110.310;2023-12-20T09:58:28;22.30;99.90
41722;DHT22;27407;24.142;-110.310;2023-12-20T10:00:55;22.30;99.90
41722;DHT22;27407;24.142;-110.310;2023-12-20T10:03:25;22.30;99.90
41722;DHT22;27407;24.142;-110.310;2023-12-20T10:05:57;22.30;99.90
41722;DHT22;27407;24.142;-110.310;2023-12-20T10:08:24;22.30;99.90
41722;DHT22;27407;24.142;-110.310;2023-12-20T10:10:51;22.30;99.90
41722;DHT22;27407;24.142;-110.310;2023-12-20T10:13:18;22.20;99.90
41722;DHT22;27407;24.142;-110.310;2023-12-20T10:15:45;22.40;99.90
41722;DHT22;27407;24.142;-110.310;2023-12-20T10:18:12;22.40;99.90
41722;DHT22;27407;24.142;-110.310;2023-12-20T10:20:41;22.40;99.90
41722;DHT22;27407;24.142;-110.310;2023-12-20T10:23:09;22.50;99.90
41722;DHT22;27407;24.142;-110.310;2023-12-20T10:25:36;22.60;99.90
41722;DHT22;27407;24.142;-110.310;2023-12-20T10:28:11;22.50;99.90
41722;DHT22;27407;24.142;-110.310;2023-12-20T10:30:39;22.30;99.90
41722;DHT22;27407;24.142;-110.310;2023-12-20T10:33:06;22.30;99.90
41722;DHT22;27407;24.142;-110.310;2023-12-20T10:35:39;22.20;99.90
41722;DHT22;27407;24.142;-110.310;2023-12-20T10:38:07;22.20;99.90
41722;DHT22;27407;24.142;-110.310;2023-12-20T10:40:37;22.30;99.90
41722;DHT22;27407;24.142;-110.310;2023-12-20T10:43:04;22.30;99.90
41722;DHT22;27407;24.142;-110.310;2023-12-20T10:45:31;22.30;99.90
41722;DHT22;27407;24.142;-110.310;2023-12-20T10:47:58;22.50;99.90
41722;DHT22;27407;24.142;-110.310;2023-12-20T10:50:27;22.60;99.90
41722;DHT22;27407;24.142;-110.310;2023-12-20T10:52:55;22.50;99.90
41722;DHT22;27407;24.142;-110.310;2023-12-20T10:55:28;22.60;99.90
41722;DHT22;27407;24.142;-110.310;2023-12-20T10:58:01;22.60;99.90
41722;DHT22;27407;24.142;-110.310;2023-12-20T11:00:29;22.50;99.90
41722;DHT22;27407;24.142;-110.310;2023-12-20T11:03:00;22.50;99.90
41722;DHT22;27407;24.142;-110.310;2023-12-20T11:08:08;22.50;99.90
41722;DHT22;27407;24.142;-110.310;2023-12-20T11:13:28;22.50;99.90
41722;DHT22;27407;24.142;-110.310;2023-12-20T11:15:57;22.40;99.90
41722;DHT22;27407;24.142;-110.310;2023-12-20T11:18:29;22.40;99.90
41722;DHT22;27407;24.142;-110.310;2023-12-20T11:21:04;22.40;99.90
41722;DHT22;27407;24.142;-110.310;2023-12-20T11:23:32;22.40;99.90
41722;DHT22;27407;24.142;-110.310;2023-12-20T11:26:03;22.60;99.90
41722;DHT22;27407;24.142;-110.310;2023-12-20T11:28:30;22.50;99.90
41722;DHT22;27407;24.142;-110.310;2023-12-20T11:31:01;22.60;99.90
41722;DHT22;27407;24.142;-110.310;2023-12-20T11:33:46;22.70;99.90
41722;DHT22;27407;24.142;-110.310;2023-12-20T11:36:17;22.60;99.90
41722;DHT22;27407;24.142;-110.310;2023-12-20T11:38:57;22.70;99.90
41722;DHT22;27407;24.142;-110.310;2023-12-20T11:41:26;22.70;99.90
41722;DHT22;27407;24.142;-110.310;2023-12-20T11:43:53;22.70;99.90
41722;DHT22;27407;24.142;-110.310;2023-12-20T11:46:21;22.70;99.90
41722;DHT22;27407;24.142;-110.310;2023-12-20T11:48:48;22.70;99.90
41722;DHT22;27407;24.142;-110.310;2023-12-20T11:51:15;22.80;99.90
41722;DHT22;27407;24.142;-110.310;2023-12-20T11:53:42;22.80;99.90
41722;DHT22;27407;24.142;-110.310;2023-12-20T11:56:09;22.70;99.90
41722;DHT22;27407;24.142;-110.310;2023-12-20T11:58:36;22.80;99.90
41722;DHT22;27407;24.142;-110.310;2023-12-20T12:01:04;22.90;99.90
41722;DHT22;27407;24.142;-110.310;2023-12-20T12:03:33;22.70;99.90
41722;DHT22;27407;24.142;-110.310;2023-12-20T12:06:00;22.60;99.90
41722;DHT22;27407;24.142;-110.310;2023-12-20T12:08:27;22.60;99.90
41722;DHT22;27407;24.142;-110.310;2023-12-20T12:10:53;22.50;99.90
41722;DHT22;27407;24.142;-110.310;2023-12-20T12:13:20;22.50;99.90
41722;DHT22;27407;24.142;-110.310;2023-12-20T12:15:48;22.50;99.90
41722;DHT22;27407;24.142;-110.310;2023-12-20T12:18:18;22.50;99.90
41722;DHT22;27407;24.142;-110.310;2023-12-20T12:20:45;22.20;99.90
41722;DHT22;27407;24.142;-110.310;2023-12-20T12:23:12;22.10;99.90
41722;DHT22;27407;24.142;-110.310;2023-12-20T12:25:39;22.00;99.90
41722;DHT22;27407;24.142;-110.310;2023-12-20T12:28:05;21.90;99.90
41722;DHT22;27407;24.142;-110.310;2023-12-20T12:30:33;21.90;99.90
41722;DHT22;27407;24.142;-110.310;2023-12-20T12:32:59;21.80;99.90
41722;DHT22;27407;24.142;-110.310;2023-12-20T12:35:26;21.80;99.90
41722;DHT22;27407;24.142;-110.310;2023-12-20T12:37:53;21.70;99.90
41722;DHT22;27407;24.142;-110.310;2023-12-20T12:40:19;21.70;99.90
41722;DHT22;27407;24.142;-110.310;2023-12-20T12:42:46;21.80;99.90
41722;DHT22;27407;24.142;-110.310;2023-12-20T12:45:14;21.90;99.90
41722;DHT22;27407;24.142;-110.310;2023-12-20T12:47:41;22.00;99.90
41722;DHT22;27407;24.142;-110.310;2023-12-20T12:50:08;22.10;99.90
41722;DHT22;27407;24.142;-110.310;2023-12-20T12:52:35;22.20;99.90
41722;DHT22;27407;24.142;-110.310;2023-12-20T12:55:02;22.20;99.90
41722;DHT22;27407;24.142;-110.310;2023-12-20T12:57:30;22.40;99.90
41722;DHT22;27407;24.142;-110.310;2023-12-20T12:59:57;22.40;99.90
41722;DHT22;27407;24.142;-110.310;2023-12-20T13:02:24;22.60;99.90
41722;DHT22;27407;24.142;-110.310;2023-12-20T13:04:51;22.70;99.90
41722;DHT22;27407;24.142;-110.310;2023-12-20T13:07:18;22.60;99.90
41722;DHT22;27407;24.142;-110.310;2023-12-20T13:09:44;22.60;99.90
41722;DHT22;27407;24.142;-110.310;2023-12-20T13:12:11;22.50;99.90
41722;DHT22;27407;24.142;-110.310;2023-12-20T13:14:37;22.60;99.90
41722;DHT22;27407;24.142;-110.310;2023-12-20T13:17:04;22.70;99.90
41722;DHT22;27407;24.142;-110.310;2023-12-20T13:19:32;22.70;99.90
41722;DHT22;27407;24.142;-110.310;2023-12-20T13:21:59;22.70;99.90
41722;DHT22;27407;24.142;-110.310;2023-12-20T13:24:25;22.80;99.90
41722;DHT22;27407;24.142;-110.310;2023-12-20T13:26:52;22.90;99.90
41722;DHT22;27407;24.142;-110.310;2023-12-20T13:29:18;23.00;99.90
41722;DHT22;27407;24.142;-110.310;2023-12-20T13:31:45;22.90;99.90
41722;DHT22;27407;24.142;-110.310;2023-12-20T13:34:12;22.80;99.90
41722;DHT22;27407;24.142;-110.310;2023-12-20T13:36:39;22.90;99.90
41722;DHT22;27407;24.142;-110.310;2023-12-20T13:39:06;22.90;99.90
41722;DHT22;27407;24.142;-110.310;2023-12-20T13:41:33;22.90;99.90
41722;DHT22;27407;24.142;-110.310;2023-12-20T13:43:59;22.90;99.90
41722;DHT22;27407;24.142;-110.310;2023-12-20T13:46:29;23.00;99.90
41722;DHT22;27407;24.142;-110.310;2023-12-20T13:48:55;22.80;99.90
41722;DHT22;27407;24.142;-110.310;2023-12-20T13:51:22;22.80;99.90
41722;DHT22;27407;24.142;-110.310;2023-12-20T13:53:49;23.00;99.90
41722;DHT22;27407;24.142;-110.310;2023-12-20T13:56:16;23.10;99.90
41722;DHT22;27407;24.142;-110.310;2023-12-20T13:58:42;23.00;99.90
41722;DHT22;27407;24.142;-110.310;2023-12-20T14:01:10;23.00;99.90
41722;DHT22;27407;24.142;-110.310;2023-12-20T14:03:37;22.80;99.90
41722;DHT22;27407;24.142;-110.310;2023-12-20T14:06:04;22.70;99.90
41722;DHT22;27407;24.142;-110.310;2023-12-20T14:08:31;22.60;99.90
41722;DHT22;27407;24.142;-110.310;2023-12-20T14:10:57;22.60;99.90
41722;DHT22;27407;24.142;-110.310;2023-12-20T14:13:24;22.60;99.90
41722;DHT22;27407;24.142;-110.310;2023-12-20T14:15:51;22.60;99.90
41722;DHT22;27407;24.142;-110.310;2023-12-20T14:18:17;22.60;99.90
41722;DHT22;27407;24.142;-110.310;2023-12-20T14:20:44;22.60;99.90
41722;DHT22;27407;24.142;-110.310;2023-12-20T14:23:13;22.70;99.90
41722;DHT22;27407;24.142;-110.310;2023-12-20T14:25:42;22.70;99.90
41722;DHT22;27407;24.142;-110.310;2023-12-20T14:28:09;22.70;99.90
41722;DHT22;27407;24.142;-110.310;2023-12-20T14:30:36;22.70;99.90
41722;DHT22;27407;24.142;-110.310;2023-12-20T14:33:04;22.60;99.90
41722;DHT22;27407;24.142;-110.310;2023-12-20T14:35:31;22.50;99.90
41722;DHT22;27407;24.142;-110.310;2023-12-20T14:37:58;22.50;99.90
41722;DHT22;27407;24.142;-110.310;2023-12-20T14:40:25;22.40;99.90
41722;DHT22;27407;24.142;-110.310;2023-12-20T14:42:52;22.40;99.90
41722;DHT22;27407;24.142;-110.310;2023-12-20T14:45:19;22.30;99.90
41722;DHT22;27407;24.142;-110.310;2023-12-20T14:47:46;22.30;99.90
41722;DHT22;27407;24.142;-110.310;2023-12-20T14:50:14;22.30;99.90
41722;DHT22;27407;24.142;-110.310;2023-12-20T14:52:44;22.40;99.90
41722;DHT22;27407;24.142;-110.310;2023-12-20T15:30:23;23.30;99.90
41722;DHT22;27407;24.142;-110.310;2023-12-20T15:32:51;23.40;99.90
41722;DHT22;27407;24.142;-110.310;2023-12-20T15:35:17;23.50;99.90
41722;DHT22;27407;24.142;-110.310;2023-12-20T15:37:44;23.50;99.90
41722;DHT22;27407;24.142;-110.310;2023-12-20T15:40:11;23.50;99.90
41722;DHT22;27407;24.142;-110.310;2023-12-20T15:42:39;23.60;99.90
41722;DHT22;27407;24.142;-110.310;2023-12-20T15:45:06;23.70;99.90
41722;DHT22;27407;24.142;-110.310;2023-12-20T15:47:36;23.80;99.90
41722;DHT22;27407;24.142;-110.310;2023-12-20T15:50:03;24.00;99.90
41722;DHT22;27407;24.142;-110.310;2023-12-20T15:52:30;24.30;99.90
41722;DHT22;27407;24.142;-110.310;2023-12-20T15:57:32;24.60;99.90
41722;DHT22;27407;24.142;-110.310;2023-12-20T16:00:00;24.80;99.90
41722;DHT22;27407;24.142;-110.310;2023-12-20T16:02:27;24.90;99.90
41722;DHT22;27407;24.142;-110.310;2023-12-20T16:04:53;24.80;99.90
41722;DHT22;27407;24.142;-110.310;2023-12-20T16:07:20;24.80;99.90
41722;DHT22;27407;24.142;-110.310;2023-12-20T16:09:46;24.90;99.90
41722;DHT22;27407;24.142;-110.310;2023-12-20T16:12:13;25.10;99.90
41722;DHT22;27407;24.142;-110.310;2023-12-20T16:14:40;25.20;99.90
41722;DHT22;27407;24.142;-110.310;2023-12-20T16:17:06;25.30;99.90
41722;DHT22;27407;24.142;-110.310;2023-12-20T16:19:33;25.30;99.90
41722;DHT22;27407;24.142;-110.310;2023-12-20T16:22:00;25.20;99.90
41722;DHT22;27407;24.142;-110.310;2023-12-20T16:24:26;25.20;99.90
41722;DHT22;27407;24.142;-110.310;2023-12-20T16:26:53;25.30;99.90
41722;DHT22;27407;24.142;-110.310;2023-12-20T16:29:19;25.20;99.90
41722;DHT22;27407;24.142;-110.310;2023-12-20T16:31:46;25.30;99.90
41722;DHT22;27407;24.142;-110.310;2023-12-20T16:34:13;25.40;99.90
41722;DHT22;27407;24.142;-110.310;2023-12-20T16:36:52;25.40;99.90
41722;DHT22;27407;24.142;-110.310;2023-12-20T16:39:23;25.50;99.90
41722;DHT22;27407;24.142;-110.310;2023-12-20T16:41:50;25.60;99.90
41722;DHT22;27407;24.142;-110.310;2023-12-20T16:44:17;25.60;99.90
41722;DHT22;27407;24.142;-110.310;2023-12-20T16:46:43;25.70;99.90
41722;DHT22;27407;24.142;-110.310;2023-12-20T16:49:10;25.80;99.90
41722;DHT22;27407;24.142;-110.310;2023-12-20T16:51:38;25.80;99.90
41722;DHT22;27407;24.142;-110.310;2023-12-20T16:54:04;25.80;99.90
41722;DHT22;27407;24.142;-110.310;2023-12-20T16:56:31;25.80;99.90
41722;DHT22;27407;24.142;-110.310;2023-12-20T16:58:58;25.80;99.90
41722;DHT22;27407;24.142;-110.310;2023-12-20T17:01:25;25.80;99.90
41722;DHT22;27407;24.142;-110.310;2023-12-20T17:03:53;25.70;99.90
41722;DHT22;27407;24.142;-110.310;2023-12-20T17:06:19;25.60;99.90
41722;DHT22;27407;24.142;-110.310;2023-12-20T17:08:46;25.50;99.90
41722;DHT22;27407;24.142;-110.310;2023-12-20T17:11:13;25.40;99.90
41722;DHT22;27407;24.142;-110.310;2023-12-20T17:13:40;25.50;99.90
41722;DHT22;27407;24.142;-110.310;2023-12-20T17:16:06;25.40;99.90
41722;DHT22;27407;24.142;-110.310;2023-12-20T17:18:33;25.70;99.90
41722;DHT22;27407;24.142;-110.310;2023-12-20T17:21:00;25.80;99.90
41722;DHT22;27407;24.142;-110.310;2023-12-20T17:23:27;25.90;99.90
41722;DHT22;27407;24.142;-110.310;2023-12-20T17:25:53;26.00;99.90
41722;DHT22;27407;24.142;-110.310;2023-12-20T17:28:20;26.10;99.90